This is the latest recevied weather packets stored in our database for station/object AC1IX. If no packets are shown the sender has not sent any weather packets the latest 1 day(s).
| Time | Temp. | Humidity | Pressure | Rain* | Wind** | Luminosity | Snow |
|---|---|---|---|---|---|---|---|
| 1778079372 | 14.44° C | 97% | 1008.9 hPa | 1.78 mm | - | 67 W/m² | - |
| 1778079069 | 15° C | 95% | 1009.1 hPa | 3.56 mm | - | 58 W/m² | - |
| 1778077556 | 16.67° C | 86% | 1009.2 hPa | 0 mm | - | 43 W/m² | - |
| 1778077254 | 16.67° C | 85% | 1009 hPa | 0 mm | - | 42 W/m² | - |
| 1778076347 | 17.22° C | 83% | 1008.9 hPa | 0 mm | - | 62 W/m² | - |
| 1778075741 | 17.78° C | 83% | 1008.7 hPa | 0 mm | - | 107 W/m² | - |
| 1778075437 | 17.78° C | 82% | 1008.7 hPa | 0 mm | - | 140 W/m² | - |
| 1778073618 | 17.78° C | 83% | 1008.4 hPa | 0 mm | - | 237 W/m² | - |
| 1778071197 | 16.11° C | 84% | 1009.2 hPa | 0 mm | - | 69 W/m² | - |
| 1778070592 | 16.11° C | 84% | 1009.2 hPa | 0 mm | - | 69 W/m² | - |
| 1778070289 | 16.11° C | 85% | 1009.1 hPa | 0 mm | - | 69 W/m² | - |
| 1778069987 | 16.11° C | 84% | 1009.3 hPa | 0 mm | - | 73 W/m² | - |
| 1778069684 | 16.11° C | 85% | 1009.2 hPa | 0 mm | - | 68 W/m² | - |
| 1778069380 | 16.11° C | 83% | 1009.1 hPa | 0 mm | - | 75 W/m² | - |
| 1778069078 | 16.11° C | 84% | 1009 hPa | 0 mm | - | 70 W/m² | - |
| 1778066659 | 15° C | 91% | 1008.6 hPa | 0 mm | - | 32 W/m² | - |
| 1778066356 | 15° C | 90% | 1008.8 hPa | 0 mm | - | 39 W/m² | - |
| 1778066054 | 15° C | 90% | 1008.8 hPa | 0 mm | - | 39 W/m² | - |
| 1778064841 | 12.78° C | 99% | 1008.5 hPa | 0 mm | - | 17 W/m² | - |
| 1778064236 | 12.22° C | 99% | 1008.4 hPa | 0 mm | - | 35 W/m² | - |
| 1778063631 | 11.67° C | 99% | 1008.5 hPa | 0 mm | - | 13 W/m² | - |
| 1778063026 | 10.56° C | 99% | 1008.4 hPa | 0 mm | - | 5 W/m² | - |
| 1778062723 | 10° C | 99% | 1008.5 hPa | 0 mm | - | 7 W/m² | - |
| 1778062419 | 10° C | 99% | 1008.4 hPa | 0 mm | - | 6 W/m² | - |
| 1778062117 | 9.44° C | 99% | 1008.6 hPa | 0 mm | - | 6 W/m² | - |
* Rain latest hour (hover to see other rain measurements)
** Current wind speed in m/s (hover to see current wind gust speed)